Flight Track Log - Related Links

Times and Time Zones

All times are in EST time to prevent confusion due to time zone crossing. See the JAL96 flight status page for this flight to view local times or setup timezone preferences in your user account.

Time Position Orientation Groundspeed Altitude Reporting Facility
EST Latitude Longitude Course Direction KTS MPH feet Rate Location/Type
Tue 09:06:00 PM 25.4317 122.0653 52° Northeast  Level Estimated
Tue 09:07:00 PM 25.5220 122.1942 52° Northeast  Level Estimated
Tue 09:08:00 PM 25.6122 122.3233 52° Northeast  Level Estimated
Tue 09:09:00 PM 25.7009 122.4506 52° Northeast  Level Estimated
Tue 09:10:00 PM 25.7895 122.5781 52° Northeast  Level Estimated
Tue 09:11:00 PM 25.8779 122.7058 52° Northeast  Level Estimated
Tue 09:12:00 PM 25.9663 122.8337 52° Northeast  Level Estimated
Tue 09:13:00 PM 26.0545 122.9617 52° Northeast  Level Estimated
Tue 09:14:00 PM 26.1426 123.0900 53° Northeast  Level Estimated
Tue 09:15:00 PM 26.2306 123.2184 53° Northeast  Level Estimated
Tue 09:16:00 PM 26.3186 123.3471 53° Northeast  Level Estimated
Tue 09:17:00 PM 26.4063 123.4759 53° Northeast  Level Estimated
Tue 09:18:00 PM 26.4940 123.6049 53° Northeast  Level Estimated
Tue 09:19:00 PM 26.5816 123.7342 53° Northeast  Level Estimated
Tue 09:20:00 PM 26.6690 123.8636 53° Northeast  Level Estimated
Tue 09:21:00 PM 26.7563 123.9932 53° Northeast  Level Estimated
Tue 09:22:00 PM 26.8435 124.1230 53° Northeast  Level Estimated
Tue 09:23:00 PM 26.9306 124.2531 53° Northeast  Level Estimated
Tue 09:24:00 PM 27.0175 124.3833 53° Northeast  Level Estimated
Tue 09:25:00 PM 27.1044 124.5137 53° Northeast  Level Estimated
Tue 09:26:00 PM 27.1911 124.6443 53° Northeast  Level Estimated
Tue 09:27:00 PM 27.2797 124.7783 53° Northeast  Level Estimated
Tue 09:28:00 PM 27.3682 124.9124 53° Northeast  Level Estimated
Tue 09:29:00 PM 27.4566 125.0467 53° Northeast  Level Estimated
Tue 09:30:00 PM 27.5449 125.1813 53° Northeast  Level Estimated
Tue 09:31:00 PM 27.6330 125.3161 54° Northeast  Level Estimated
Tue 09:32:00 PM 27.7210 125.4511 54° Northeast  Level Estimated
Tue 09:33:00 PM 27.8089 125.5863 54° Northeast  Level Estimated
Tue 09:34:00 PM 27.8966 125.7217 54° Northeast  Level Estimated
Tue 09:35:00 PM 27.9842 125.8574 54° Northeast  Level Estimated
Tue 09:36:00 PM 28.0717 125.9933 54° Northeast  Level Estimated
Tue 09:37:00 PM 28.1590 126.1294 54° Northeast  Level Estimated
Tue 09:38:00 PM 28.2462 126.2657 54° Northeast  Level Estimated
Tue 09:39:00 PM 28.3333 126.4023 54° Northeast  Level Estimated
Tue 09:40:00 PM 28.4202 126.5390 54° Northeast  Level Estimated
Tue 09:41:00 PM 28.5070 126.6760 54° Northeast  Level Estimated
Tue 09:42:00 PM 28.5937 126.8132 54° Northeast  Level Estimated
Tue 09:43:00 PM 28.6802 126.9507 54° Northeast  Level Estimated
Tue 09:44:00 PM 28.7665 127.0883 54° Northeast  Level Estimated
Tue 09:45:00 PM 28.8528 127.2262 54° Northeast  Level Estimated
Tue 09:46:00 PM 28.9389 127.3644 55° Northeast  Level Estimated
Tue 09:47:00 PM 29.0248 127.5027 55° Northeast  Level Estimated
Tue 09:48:00 PM 29.1106 127.6413 55° Northeast  Level Estimated
Tue 09:49:00 PM 29.1963 127.7801 55° Northeast  Level Estimated
Tue 09:50:00 PM 29.2818 127.9192 55° Northeast  Level Estimated
Tue 09:51:00 PM 29.3672 128.0585 55° Northeast  Level Estimated
Tue 09:52:00 PM 29.4524 128.1980 55° Northeast  Level Estimated
Tue 09:53:00 PM 29.5375 128.3377 55° Northeast  Level Estimated
Tue 09:54:00 PM 29.6225 128.4777 55° Northeast  Level Estimated
Tue 09:55:00 PM 29.7073 128.6180 55° Northeast  Level Estimated
Tue 09:56:00 PM 29.7919 128.7584 55° Northeast  Level Estimated
Tue 09:57:00 PM 29.8764 128.8991 55° Northeast  Level Estimated
Tue 09:58:00 PM 29.9608 129.0401 55° Northeast  Level Estimated
Tue 09:59:00 PM 30.0450 129.1812 55° Northeast  Level Estimated
Tue 10:00:00 PM 30.1290 129.3226 55° Northeast  Level Estimated
Tue 10:01:00 PM 30.2129 129.4643 56° Northeast  Level Estimated
Tue 10:02:00 PM 30.2966 129.6062 56° Northeast  Level Estimated
Tue 10:03:00 PM 30.3802 129.7484 56° Northeast  Level Estimated
Tue 10:04:00 PM 30.4637 129.8907 56° Northeast  Level Estimated
Tue 10:05:00 PM 30.5470 130.0334 56° Northeast  Level Estimated
Tue 10:06:00 PM 30.6301 130.1762 56° Northeast  Level Estimated
Tue 10:07:00 PM 30.7131 130.3194 56° Northeast  Level Estimated
Tue 10:08:00 PM 30.7959 130.4627 56° Northeast  Level Estimated
Tue 10:09:00 PM 30.8785 130.6063 56° Northeast  Level Estimated
Tue 10:10:00 PM 30.9610 130.7502 56° Northeast  Level Estimated
Tue 10:11:00 PM 31.0434 130.8943 56° Northeast  Level Estimated
Tue 10:12:00 PM 31.1255 131.0387 56° Northeast  Level Estimated
Tue 10:13:00 PM 31.2076 131.1833 56° Northeast  Level Estimated
Tue 10:14:00 PM 31.2894 131.3281 56° Northeast  Level Estimated
Tue 10:15:00 PM 31.3711 131.4732 57° Northeast  Level Estimated
Tue 10:16:00 PM 31.4526 131.6186 57° Northeast  Level Estimated
Tue 10:17:00 PM 31.5340 131.7642 57° Northeast  Level Estimated
Tue 10:18:00 PM 31.6152 131.9101 57° Northeast  Level Estimated
Tue 10:19:00 PM 31.6962 132.0562 57° Northeast  Level Estimated
Tue 10:20:00 PM 31.7771 132.2026 57° Northeast  Level Estimated
Tue 10:21:00 PM 31.8578 132.3492 57° Northeast  Level Estimated
Tue 10:22:00 PM 31.9383 132.4961 57° Northeast  Level Estimated
Tue 10:23:00 PM 32.0187 132.6432 57° Northeast  Level Estimated
Tue 10:24:00 PM 32.0989 132.7906 57° Northeast  Level Estimated
Tue 10:25:00 PM 32.1789 132.9383 57° Northeast  Level Estimated
Tue 10:26:00 PM 32.2587 133.0862 57° Northeast  Level Estimated
Tue 10:27:00 PM 32.3384 133.2344 58° Northeast  Level Estimated
Tue 10:28:00 PM 32.4179 133.3828 58° Northeast  Level Estimated
Tue 10:29:00 PM 32.4972 133.5316 58° Northeast  Level Estimated
Tue 10:30:00 PM 32.5764 133.6805 58° Northeast  Level Estimated
Tue 10:31:00 PM 32.6553 133.8297 58° Northeast  Level Estimated
Tue 10:32:00 PM 32.7341 133.9792 58° Northeast  Level Estimated
Tue 10:33:00 PM 32.8128 134.1290 58° Northeast  Level Estimated
Tue 10:34:00 PM 32.8912 134.2790 58° Northeast  Level Estimated
Tue 10:35:00 PM 32.9695 134.4293 58° Northeast  Level Estimated
Tue 10:36:00 PM 33.0475 134.5799 58° Northeast  Level Estimated
Tue 10:37:00 PM 33.1254 134.7307 58° Northeast  Level Estimated
Tue 10:38:00 PM 33.2032 134.8818 58° Northeast  Level Estimated
Tue 10:39:00 PM 33.2807 135.0331 58° Northeast  Level Estimated
Tue 10:40:00 PM 33.3580 135.1848 59° Northeast  Level Estimated
Tue 10:41:00 PM 33.4352 135.3367 59° Northeast  Level Estimated
Tue 10:42:00 PM 33.5122 135.4888 59° Northeast  Level Estimated
Tue 10:43:00 PM 33.5890 135.6413 59° Northeast  Level Estimated
Tue 10:44:00 PM 33.6656 135.7940 59° Northeast  Level Estimated
Tue 10:45:00 PM 33.7420 135.9470 59° Northeast  Level Estimated
Tue 10:46:00 PM 33.8182 136.1002 59° Northeast  Level Estimated
Tue 10:47:00 PM 33.8943 136.2538 59° Northeast  Level Estimated
Tue 10:48:00 PM 33.9701 136.4075 59° Northeast  Level Estimated
Tue 10:49:00 PM 34.0458 136.5616 59° Northeast  Level Estimated
Tue 10:50:00 PM 34.1213 136.7160 59° Northeast  Level Estimated
Tue 10:51:00 PM 34.1965 136.8706 59° Northeast  Level Estimated
Tue 10:52:00 PM 34.2716 137.0255 60° Northeast  Level Estimated
Tue 10:53:00 PM 34.3465 137.1807 60° Northeast  Level Estimated
Tue 10:54:00 PM 34.4212 137.3361 60° Northeast  Level Estimated
Tue 10:55:00 PM 34.4957 137.4919 60° Northeast  Level Estimated
Tue 10:56:00 PM 34.5700 137.6479 60° Northeast  Level Estimated
Tue 10:57:00 PM 34.6440 137.8042 60° Northeast  Level Estimated
Tue 10:58:00 PM 34.7179 137.9607 60° Northeast  Level Estimated
Tue 10:59:00 PM 34.7916 138.1176 60° Northeast  Level Estimated
Tue 11:00:00 PM 34.8651 138.2747 60° Northeast  Level Estimated
Tue 11:01:00 PM 34.9384 138.4321 60° Northeast  Level Estimated
Tue 11:02:00 PM 35.0103 138.5874 60° Northeast  Level Estimated
Tue 11:03:00 PM 35.0821 138.7429 61° Northeast  Level Estimated
Tue 11:04:00 PM 35.1537 138.8987 61° Northeast  Level Estimated
Tue 11:05:00 PM 35.2250 139.0547 61° Northeast  Level Estimated
Tue 11:06:00 PM 35.2962 139.2110 61° Northeast  Level Estimated
Tue 11:07:00 PM 35.3671 139.3677 61° Northeast  Level Estimated
Tue 11:08:00 PM 35.4379 139.5246 61° Northeast  Level Estimated
Tue 11:09:00 PM 35.5095 139.6842 61° Northeast  Level Estimated
Tue 11:10:00 PM 35.5523 139.7797 61° Northeast  Level Estimated
Tue 11:11:00 PM 35.5523 139.7797 122° Southeast  Level Estimated
Tue 11:12:00 PM 35.5523 139.7797 122° Southeast  Level Estimated
Tue 11:13:00 PM 35.5523 139.7797 122° Southeast  Level Estimated
Tue 11:14:00 PM 35.5523 139.7797 122° Southeast  Level Estimated
Tue 11:15:00 PM 35.5523 139.7797 122° Southeast  Level Estimated
Tue 11:16:00 PM 35.5523 139.7797 122° Southeast  Level Estimated
Tue 11:17:00 PM 35.5523 139.7797 122° Southeast  Level Estimated
Tue 11:18:00 PM 35.5523 139.7797 122° Southeast  Level Estimated
Tue 11:19:00 PM 35.5523 139.7797 122° Southeast  Level Estimated
Tue 11:20:00 PM 35.5523 139.7797 122° Southeast  Level Estimated
Tue 11:21:00 PM 35.5523 139.7797 122° Southeast  Level Estimated

Login

Don't have an account? Register now (free) for customized features, flight alerts, and more!